Time;durP1;ratioP1;P1;durP2;ratioP2;P2;SDS_P1;SDS_P2;PMS_P1;PMS_P2;Temp;Humidity;BMP_temperature;BMP_pressure;BME280_temperature;BME280_humidity;BME280_pressure;Samples;Min_cycle;Max_cycle;Signal;HPM_P1;HPM_P2
2022/11/11 00:00:13;;;;;;;22.20;12.50;;;;;;;7.99;85.31;101978.66;6267983;22;20026;-95
2022/11/11 00:02:48;;;;;;;25.70;13.23;;;;;;;8.03;85.40;101981.97;6268518;22;20002;-95
2022/11/11 01:27:50;;;;;;;21.15;11.82;;;;;;;7.07;87.58;101960.25;6355003;22;20075;-94
2022/11/11 01:30:27;;;;;;;25.35;12.20;;;;;;;7.12;87.58;101971.50;6318479;22;20113;-93
2022/11/11 01:33:08;;;;;;;25.08;12.25;;;;;;;7.29;87.39;102002.41;6326136;22;20068;-94
2022/11/11 01:35:52;;;;;;;20.40;11.50;;;;;;;7.11;86.66;101964.44;6325556;22;20019;-94
2022/11/11 01:38:45;;;;;;;19.73;10.68;;;;;;;7.26;86.21;101990.13;6331873;22;20049;-96
2022/11/11 01:42:10;;;;;;;21.45;11.90;;;;;;;6.92;86.60;101949.66;6323025;22;20003;-94
2022/11/11 01:44:56;;;;;;;19.40;11.70;;;;;;;7.02;86.32;101970.41;6325369;22;20045;-95
2022/11/11 01:49:17;;;;;;;27.48;16.75;;;;;;;7.05;86.11;101970.22;6315557;22;20011;-95
2022/11/11 01:50:36;;;;;;;45.13;24.45;;;;;;;7.26;85.72;102000.81;6338245;22;20018;-95
2022/11/11 01:53:08;;;;;;;41.00;22.05;;;;;;;6.85;87.13;101968.91;6341645;22;20017;-95
2022/11/11 01:55:39;;;;;;;38.50;21.85;;;;;;;6.94;86.91;101978.97;6293844;22;20010;-95
2022/11/11 01:58:20;;;;;;;65.03;25.02;;;;;;;6.72;87.08;101958.19;6343508;22;20032;-90
2022/11/11 02:01:12;;;;;;;37.88;23.17;;;;;;;6.75;86.66;101966.84;6329954;22;20022;-93
2022/11/11 02:06:58;;;;;;;39.67;25.90;;;;;;;6.86;86.48;101992.88;6335381;22;20052;-94
2022/11/11 02:09:29;;;;;;;45.72;27.88;;;;;;;6.68;87.29;101972.72;6331651;22;20008;-95
2022/11/11 02:14:46;;;;;;;42.35;25.88;;;;;;;6.40;86.97;101955.88;6339723;22;20347;-92
2022/11/11 02:17:21;;;;;;;39.42;24.73;;;;;;;6.73;87.09;102013.34;6310472;22;19999;-92
2022/11/11 02:20:00;;;;;;;37.70;24.42;;;;;;;6.59;87.10;102000.06;6307665;22;20046;-93
2022/11/11 02:22:45;;;;;;;43.33;26.13;;;;;;;6.36;86.94;101978.38;6316156;22;20010;-94
2022/11/11 02:25:31;;;;;;;41.97;25.67;;;;;;;6.25;87.20;101970.22;6320240;22;20019;-94
2022/11/11 02:28:39;;;;;;;41.58;26.52;;;;;;;6.10;86.97;101954.25;6307260;22;20059;-94
2022/11/11 02:31:10;;;;;;;67.28;32.10;;;;;;;6.04;87.16;101984.03;6326982;22;20003;-94
2022/11/11 02:33:44;;;;;;;52.03;32.25;;;;;;;6.42;87.04;102015.41;6360933;22;20068;-93
2022/11/11 02:36:15;;;;;;;59.30;35.72;;;;;;;6.21;86.66;101974.94;6354164;22;20106;-92
2022/11/11 02:38:47;;;;;;;66.03;39.00;;;;;;;6.15;87.46;101990.50;6313931;22;20011;-95
2022/11/11 02:44:35;;;;;;;142.60;43.45;;;;;;;6.32;87.32;102025.84;6345357;22;20243;-95
2022/11/11 02:47:10;;;;;;;194.43;44.15;;;;;;;5.75;88.16;101944.97;6318274;22;20015;-95
2022/11/11 02:49:41;;;;;;;244.82;48.75;;;;;;;6.05;88.33;101999.09;6294580;22;20033;-93
2022/11/11 02:52:21;;;;;;;263.33;55.00;;;;;;;5.76;89.70;101984.91;6282872;22;20026;-92
2022/11/11 02:54:55;;;;;;;320.33;53.58;;;;;;;5.71;90.67;101977.22;6348015;22;20032;-93
2022/11/11 02:57:30;;;;;;;249.82;54.03;;;;;;;5.81;90.84;101995.31;6334307;22;20066;-93
2022/11/11 03:00:06;;;;;;;188.82;54.90;;;;;;;5.95;91.35;102008.66;6344117;22;20074;-94
2022/11/11 03:02:38;;;;;;;223.73;54.47;;;;;;;5.80;91.03;101981.06;6293071;22;20081;-93
2022/11/11 03:05:08;;;;;;;225.98;53.55;;;;;;;5.90;91.16;101986.72;6317487;22;20184;-91
2022/11/11 03:07:49;;;;;;;255.52;56.10;;;;;;;5.71;91.44;101971.88;6321473;22;20014;-93
2022/11/11 03:10:39;;;;;;;165.23;52.88;;;;;;;5.69;92.05;101948.91;6288576;22;20041;-93
2022/11/11 03:13:24;;;;;;;214.52;55.80;;;;;;;5.88;92.82;101999.28;6320353;22;20032;-93
2022/11/11 03:16:05;;;;;;;198.88;54.92;;;;;;;5.82;92.84;101999.69;6327745;22;20067;-93
2022/11/11 03:18:44;;;;;;;208.23;55.25;;;;;;;5.89;92.93;101984.97;6337155;22;20018;-95
2022/11/11 03:21:15;;;;;;;180.98;51.60;;;;;;;5.95;92.90;102000.66;6319324;22;20091;-95
2022/11/11 03:23:53;;;;;;;190.45;55.03;;;;;;;5.77;93.25;101969.75;6344463;22;20051;-93
2022/11/11 03:26:25;;;;;;;169.18;56.70;;;;;;;5.80;93.60;101980.22;6310047;22;20521;-94
2022/11/11 03:29:14;;;;;;;158.70;56.42;;;;;;;5.69;93.66;101979.09;6311584;22;20011;-94
2022/11/11 03:32:09;;;;;;;179.65;57.35;;;;;;;5.86;93.68;101993.19;6318670;22;20003;-93
2022/11/11 03:34:40;;;;;;;271.33;60.17;;;;;;;5.89;93.59;102007.19;6290319;22;20022;-92
2022/11/11 03:39:58;;;;;;;222.98;60.22;;;;;;;6.05;93.02;102017.78;6308831;22;20022;-96
2022/11/11 03:42:27;;;;;;;181.50;62.72;;;;;;;5.84;93.23;102003.09;6275922;22;20012;-94
2022/11/11 03:45:13;;;;;;;169.70;64.43;;;;;;;5.88;93.52;101988.63;6309061;22;20023;-93
2022/11/11 03:47:44;;;;;;;171.65;62.35;;;;;;;5.77;93.10;101961.75;6307412;22;20408;-95
2022/11/11 03:50:13;;;;;;;205.90;64.05;;;;;;;6.06;93.57;102015.97;6284365;22;20015;-94
2022/11/11 03:52:47;;;;;;;176.15;58.50;;;;;;;6.12;92.92;102008.41;6311806;22;20313;-95
2022/11/11 03:55:36;;;;;;;166.73;59.78;;;;;;;5.96;93.39;102004.16;6318796;22;20455;-95
2022/11/11 03:58:12;;;;;;;156.60;58.63;;;;;;;5.93;93.23;101982.03;6313471;22;20384;-94
2022/11/11 04:00:48;;;;;;;141.90;51.47;;;;;;;6.05;93.22;102017.78;6314676;22;20007;-95
2022/11/11 04:16:05;;;;;;;120.38;50.63;;;;;;;5.89;92.76;101982.31;6208896;23;20032;-94
2022/11/11 04:21:45;;;;;;;121.75;51.25;;;;;;;5.73;92.07;101985.09;6221779;23;20067;-95
2022/11/11 04:27:15;;;;;;;124.53;51.20;;;;;;;5.94;92.72;102014.94;6305555;22;20026;-96
2022/11/11 04:29:42;;;;;;;135.27;52.80;;;;;;;5.70;92.66;101990.63;6278923;22;20019;-94
2022/11/11 04:35:10;;;;;;;116.97;49.60;;;;;;;5.66;92.89;101973.94;6324968;22;20042;-94
2022/11/11 04:41:07;;;;;;;106.95;48.63;;;;;;;5.86;92.64;101986.03;6332511;22;20006;-90
2022/11/11 04:46:38;;;;;;;98.50;43.72;;;;;;;6.24;91.97;102038.81;6332344;22;20044;-93
2022/11/11 04:49:07;;;;;;;100.47;42.97;;;;;;;6.25;92.14;102039.66;6300332;22;20022;-91
2022/11/11 04:58:03;;;;;;;80.97;36.75;;;;;;;6.17;90.33;101981.41;6282117;22;20083;-94
2022/11/11 05:00:41;;;;;;;75.13;33.83;;;;;;;6.37;90.06;102012.19;6305070;22;20074;-89
2022/11/11 05:03:15;;;;;;;67.72;35.55;;;;;;;6.40;89.85;102008.44;6334396;22;19995;-93
2022/11/11 05:08:56;;;;;;;80.95;37.08;;;;;;;6.63;89.64;102028.31;6327997;22;20041;-94
2022/11/11 05:11:45;;;;;;;85.43;38.90;;;;;;;6.41;89.93;101994.97;6317408;22;20011;-95
2022/11/11 05:22:45;;;;;;;77.65;38.05;;;;;;;6.71;87.29;102020.63;6356161;22;20013;-93
2022/11/11 05:25:24;;;;;;;79.47;38.53;;;;;;;7.12;87.02;102075.81;6267225;22;20007;-93
2022/11/11 05:28:22;;;;;;;86.03;38.38;;;;;;;6.85;86.39;102014.34;6294254;22;20387;-90
2022/11/11 05:31:07;;;;;;;71.47;38.40;;;;;;;7.22;85.52;102046.63;6333611;22;20007;-94
2022/11/11 05:34:17;;;;;;;72.72;37.75;;;;;;;7.39;85.37;102071.22;6323658;22;20007;-95
2022/11/11 05:37:10;;;;;;;77.18;37.47;;;;;;;7.65;85.26;102089.13;6347574;22;20067;-95
2022/11/11 05:39:37;;;;;;;73.65;37.65;;;;;;;7.60;85.33;102068.03;6307508;22;19994;-91
2022/11/11 05:42:52;;;;;;;72.45;38.25;;;;;;;7.84;84.26;102084.19;6293069;22;20014;-94
2022/11/11 05:46:19;;;;;;;75.78;36.17;;;;;;;7.61;84.33;102059.91;6262780;22;20016;-92
2022/11/11 05:54:18;;;;;;;64.35;36.35;;;;;;;7.81;83.35;102036.22;6295453;22;20083;-91
2022/11/11 05:57:24;;;;;;;68.55;35.78;;;;;;;8.13;82.92;102043.75;6300463;22;20042;-95
2022/11/11 05:59:59;;;;;;;60.53;33.00;;;;;;;8.37;82.17;102065.22;6295109;22;20026;-94
2022/11/11 06:02:25;;;;;;;65.43;32.20;;;;;;;8.40;81.70;102046.25;6255023;22;20011;-91
2022/11/11 06:04:50;;;;;;;55.20;28.77;;;;;;;8.38;81.28;102034.75;6220520;22;20046;-91
2022/11/11 06:07:24;;;;;;;56.20;28.55;;;;;;;8.77;80.29;102059.63;6225506;22;20027;-93
2022/11/11 06:10:29;;;;;;;54.53;28.65;;;;;;;8.76;79.89;102064.13;6280034;22;20490;-89
2022/11/11 06:13:03;;;;;;;52.15;28.30;;;;;;;8.82;80.40;102082.44;6291033;22;20023;-90
2022/11/11 06:15:33;;;;;;;49.67;26.33;;;;;;;8.66;80.56;102066.66;6256842;22;19999;-93
2022/11/11 06:18:00;;;;;;;46.83;26.52;;;;;;;8.87;80.49;102092.81;6227045;22;20332;-91
2022/11/11 06:20:39;;;;;;;51.53;24.08;;;;;;;8.80;79.69;102059.38;6254030;22;20032;-93
2022/11/11 06:23:41;;;;;;;42.78;23.73;;;;;;;9.21;79.52;102101.88;6263756;22;20166;-95
2022/11/11 06:26:15;;;;;;;42.33;22.13;;;;;;;9.01;78.57;102054.22;6281161;22;20027;-93
2022/11/11 06:28:54;;;;;;;46.05;24.70;;;;;;;9.09;78.47;102084.03;6306070;22;20011;-92
2022/11/11 06:31:27;;;;;;;49.50;25.73;;;;;;;9.00;79.27;102092.75;6278099;22;20023;-91
2022/11/11 06:34:05;;;;;;;47.70;25.65;;;;;;;8.83;79.14;102072.59;6265521;22;20082;-91
2022/11/11 06:36:36;;;;;;;51.55;26.73;;;;;;;9.17;78.91;102104.91;6291152;22;20384;-93
2022/11/11 06:39:11;;;;;;;46.50;26.10;;;;;;;8.69;79.64;102052.16;6289753;22;20014;-92
2022/11/11 06:52:20;;;;;;;52.22;28.17;;;;;;;8.89;79.41;102047.97;6355460;22;20018;-92
2022/11/11 06:55:26;;;;;;;49.00;27.50;;;;;;;8.98;79.23;102052.63;6328635;22;20015;-94
2022/11/11 06:58:44;;;;;;;66.32;27.95;;;;;;;9.56;78.91;102108.19;6352548;22;20006;-92
2022/11/11 07:01:50;;;;;;;49.53;27.20;;;;;;;9.63;77.83;102069.13;6176036;23;19997;-96
2022/11/11 07:07:36;;;;;;;60.17;30.42;;;;;;;9.89;75.68;102073.28;6316415;22;20020;-94
2022/11/11 07:10:57;;;;;;;64.60;33.33;;;;;;;10.16;76.06;102115.09;6292650;22;20055;-93
2022/11/11 07:19:26;;;;;;;63.05;34.28;;;;;;;10.38;75.34;102124.13;6308662;22;20512;-92
2022/11/11 07:25:11;;;;;;;57.72;32.05;;;;;;;10.53;75.09;102129.09;6350279;22;20044;-92
2022/11/11 07:27:40;;;;;;;56.17;32.08;;;;;;;10.56;74.63;102111.88;6288001;22;20011;-90
2022/11/11 07:32:59;;;;;;;57.65;30.63;;;;;;;10.73;74.54;102113.19;6305070;22;20027;-95
2022/11/11 07:38:42;;;;;;;53.65;28.27;;;;;;;11.11;73.60;102112.66;6229832;22;20034;-95
2022/11/11 07:41:10;;;;;;;51.47;27.52;;;;;;;11.76;72.63;102118.78;6348376;22;20003;-89
2022/11/11 07:43:36;;;;;;;61.63;27.75;;;;;;;11.99;71.02;102102.50;6325277;22;20003;-91
2022/11/11 07:46:06;;;;;;;58.88;28.23;;;;;;;12.13;69.65;102068.94;6294052;22;20054;-93
2022/11/11 07:48:45;;;;;;;52.78;29.95;;;;;;;12.91;68.86;102087.97;6316507;22;20036;-95
2022/11/11 07:51:22;;;;;;;59.40;34.17;;;;;;;13.53;66.91;102100.16;6322176;22;20005;-93
2022/11/11 07:53:49;;;;;;;53.83;32.75;;;;;;;13.87;64.40;102105.06;6314672;22;20052;-91
2022/11/11 07:56:25;;;;;;;56.70;34.80;;;;;;;14.25;63.55;102111.28;6316032;22;20022;-93
2022/11/11 07:59:04;;;;;;;;;;;;;;;14.42;62.86;102113.22;6314372;22;20006;-93
2022/11/11 08:01:33;;;;;;;64.10;33.47;;;;;;;14.44;62.46;102118.47;6317228;22;20552;-94
2022/11/11 08:04:08;;;;;;;61.95;33.72;;;;;;;14.35;61.08;102090.44;6317675;22;20014;-95
2022/11/11 08:14:43;;;;;;;52.25;29.92;;;;;;;14.32;60.79;102112.41;6310963;22;20046;-94
2022/11/11 08:17:19;;;;;;;50.50;28.85;;;;;;;14.43;60.81;102120.31;6233051;22;20015;-92
2022/11/11 08:19:58;;;;;;;45.47;28.23;;;;;;;13.99;60.98;102095.75;6311162;22;20000;-92
2022/11/11 08:22:26;;;;;;;52.55;30.20;;;;;;;14.19;61.21;102123.56;6258044;22;20030;-91
2022/11/11 08:24:52;;;;;;;57.25;29.77;;;;;;;14.11;60.68;102097.25;6320772;22;20022;-93
2022/11/11 08:27:19;;;;;;;75.35;40.92;;;;;;;14.14;60.57;102102.38;6243076;22;20011;-93
2022/11/11 08:30:53;;;;;;;65.88;33.83;;;;;;;14.28;61.53;102116.41;6282039;22;20023;-92
2022/11/11 08:33:20;;;;;;;60.50;31.17;;;;;;;14.20;60.21;102086.56;6296366;22;20006;-90
2022/11/11 08:35:55;;;;;;;57.40;32.83;;;;;;;14.46;60.19;102135.41;6299057;22;20008;-93
2022/11/11 08:38:42;;;;;;;52.15;30.80;;;;;;;13.96;61.04;102114.13;6299668;22;20343;-94
2022/11/11 08:42:06;;;;;;;65.22;31.55;;;;;;;14.37;60.81;102145.25;6287342;22;20014;-92
2022/11/11 08:44:47;;;;;;;60.78;31.73;;;;;;;14.24;60.79;102096.94;6326311;22;20034;-94
2022/11/11 08:47:35;;;;;;;65.57;31.23;;;;;;;14.60;59.97;102123.25;6301427;22;19995;-94
2022/11/11 08:50:01;;;;;;;57.65;31.50;;;;;;;14.61;60.45;102114.13;6328892;22;20014;-94
2022/11/11 08:52:28;;;;;;;57.75;32.38;;;;;;;14.75;59.89;102135.28;6278968;22;20012;-95
2022/11/11 08:55:10;;;;;;;59.40;31.38;;;;;;;14.78;60.22;102132.25;6237188;22;20007;-93
2022/11/11 08:57:39;;;;;;;62.05;32.33;;;;;;;14.70;60.56;102133.03;6285026;22;20007;-93
2022/11/11 09:00:08;;;;;;;53.55;32.17;;;;;;;14.73;60.13;102116.47;6282983;22;20061;-92
2022/11/11 09:02:34;;;;;;;51.90;31.10;;;;;;;14.88;60.04;102133.03;6257623;22;20007;-93
2022/11/11 09:05:08;;;;;;;58.78;32.85;;;;;;;14.84;59.89;102131.63;6260325;22;20432;-94
2022/11/11 09:07:39;;;;;;;58.50;32.80;;;;;;;14.86;59.70;102147.72;6261294;22;20011;-95
2022/11/11 09:10:10;;;;;;;61.40;31.15;;;;;;;14.65;60.06;102110.09;6320206;22;20137;-92
2022/11/11 09:12:49;;;;;;;57.50;31.45;;;;;;;14.56;60.18;102096.50;6330365;22;20007;-92
2022/11/11 09:15:32;;;;;;;55.65;30.08;;;;;;;14.21;60.66;102089.13;6292027;22;20063;-95
2022/11/11 09:18:17;;;;;;;51.72;29.63;;;;;;;14.38;60.55;102113.66;6313746;22;20006;-94
2022/11/11 09:20:45;;;;;;;56.83;31.15;;;;;;;14.24;61.38;102120.44;6314946;22;20345;-94
2022/11/11 09:23:17;;;;;;;49.35;32.15;;;;;;;14.24;61.38;102109.59;6263204;22;20014;-93
2022/11/11 09:25:48;;;;;;;64.97;35.08;;;;;;;14.35;62.11;102117.50;6331394;22;20119;-94
2022/11/11 09:28:16;;;;;;;58.58;33.90;;;;;;;14.51;61.67;102139.34;6310954;22;20485;-92
2022/11/11 09:31:27;;;;;;;;;;;;;;;;;;;;;
2022/11/11 09:37:30;;;;;;;62.10;33.05;;;;;;;14.12;61.31;102115.19;6233981;23;20015;-92
2022/11/11 09:39:58;;;;;;;68.47;33.95;;;;;;;14.24;61.90;102104.19;6205922;23;20088;-92
2022/11/11 09:42:43;;;;;;;67.70;34.13;;;;;;;14.57;60.96;102140.66;6200791;23;20032;-92
2022/11/11 09:45:23;;;;;;;60.13;32.67;;;;;;;14.53;61.11;102131.94;6250743;22;20009;-92
2022/11/11 09:48:10;;;;;;;60.35;32.35;;;;;;;14.62;61.48;102129.38;6291159;22;20087;-92
2022/11/11 09:50:39;;;;;;;56.47;31.67;;;;;;;14.67;61.41;102125.19;6345752;22;20011;-95
2022/11/11 09:53:29;;;;;;;64.72;31.45;;;;;;;14.74;61.10;102130.84;6265708;22;20076;-91
2022/11/11 09:56:07;;;;;;;55.90;29.30;;;;;;;14.56;61.11;102110.03;6315670;22;20102;-92
2022/11/11 09:59:23;;;;;;;55.42;30.33;;;;;;;14.70;61.47;102132.16;6299595;22;20026;-93
2022/11/11 10:01:59;;;;;;;54.30;28.55;;;;;;;14.85;61.56;102108.97;6313878;22;20072;-94
2022/11/11 10:04:49;;;;;;;56.58;28.75;;;;;;;15.03;60.76;102118.94;6290529;22;20026;-93
2022/11/11 10:07:45;;;;;;;49.10;27.95;;;;;;;15.06;60.29;102119.50;6321280;22;20017;-95
2022/11/11 10:10:47;;;;;;;53.78;28.85;;;;;;;14.99;60.23;102135.50;6323276;22;20006;-91
2022/11/11 10:13:45;;;;;;;56.75;30.70;;;;;;;14.74;60.85;102084.81;6295102;22;20034;-94
2022/11/11 10:16:43;;;;;;;61.53;31.95;;;;;;;14.98;60.60;102131.13;6290024;22;20019;-92
2022/11/11 10:19:52;;;;;;;69.00;30.65;;;;;;;14.90;60.87;102109.34;6317953;22;20029;-94
2022/11/11 10:22:37;;;;;;;63.92;28.83;;;;;;;15.05;59.86;102109.66;6325126;22;20052;-91
2022/11/11 10:25:19;;;;;;;56.08;28.10;;;;;;;15.27;59.27;102138.16;6267504;22;19999;-91
2022/11/11 10:27:50;;;;;;;55.13;28.27;;;;;;;15.21;59.16;102106.25;6303028;22;20015;-90
2022/11/11 10:30:25;;;;;;;50.83;27.83;;;;;;;15.20;58.70;102112.69;6270151;22;20097;-92
2022/11/11 10:33:28;;;;;;;50.70;28.10;;;;;;;15.14;58.90;102091.63;6313407;22;20036;-92
2022/11/11 10:36:04;;;;;;;61.67;28.70;;;;;;;15.29;59.11;102105.47;6289738;22;20007;-94
2022/11/11 10:38:58;;;;;;;65.97;28.02;;;;;;;15.43;58.86;102128.44;6313428;22;20003;-93
2022/11/11 10:41:45;;;;;;;53.22;27.80;;;;;;;15.52;58.56;102130.22;6310152;22;20005;-92
2022/11/11 10:44:31;;;;;;;48.47;28.33;;;;;;;15.43;58.81;102096.78;6313452;22;20014;-94
2022/11/11 10:47:19;;;;;;;50.33;27.65;;;;;;;15.53;58.19;102102.09;6287086;22;20033;-92
2022/11/11 10:50:18;;;;;;;50.42;27.80;;;;;;;15.39;58.67;102082.69;6312694;22;20003;-93
2022/11/11 10:53:04;;;;;;;51.88;28.83;;;;;;;15.58;58.15;102108.75;6292330;22;20075;-93
2022/11/11 10:56:27;;;;;;;48.92;27.63;;;;;;;15.44;55.24;102078.66;6342382;22;20085;-94
2022/11/11 10:59:35;;;;;;;50.40;28.98;;;;;;;15.74;56.07;102116.19;6313091;22;20013;-92
2022/11/11 11:08:47;;;;;;;53.70;28.75;;;;;;;15.36;55.00;102074.88;6361128;22;20014;-92
2022/11/11 11:11:41;;;;;;;47.30;27.98;;;;;;;15.63;54.74;102113.69;6308630;22;20082;-92
2022/11/11 11:14:34;;;;;;;46.70;27.85;;;;;;;15.33;55.09;102068.91;6361944;22;20079;-94
2022/11/11 11:17:17;;;;;;;49.78;28.40;;;;;;;15.30;55.24;102053.84;6269216;22;20476;-94
2022/11/11 11:20:13;;;;;;;53.15;29.20;;;;;;;15.52;55.14;102108.53;6314057;22;20014;-95
2022/11/11 11:22:58;;;;;;;56.55;29.25;;;;;;;15.44;55.17;102113.91;6323908;22;20007;-92
2022/11/11 11:25:28;;;;;;;52.38;29.42;;;;;;;15.39;54.82;102088.13;6295714;22;20010;-91
2022/11/11 11:28:18;;;;;;;51.50;28.73;;;;;;;15.52;54.47;102103.09;6288172;22;20042;-93
2022/11/11 11:31:09;;;;;;;53.00;28.10;;;;;;;15.44;55.12;102100.34;6312402;22;20443;-91
2022/11/11 11:34:00;;;;;;;48.15;28.52;;;;;;;15.06;55.89;102075.31;6342305;22;20006;-93
2022/11/11 11:36:33;;;;;;;47.65;27.50;;;;;;;15.11;55.46;102075.69;6338177;22;20132;-94
2022/11/11 11:39:07;;;;;;;50.83;29.05;;;;;;;14.96;56.40;102089.78;6313851;22;20015;-93
2022/11/11 11:41:50;;;;;;;60.58;30.30;;;;;;;14.76;56.46;102077.41;6292071;22;20032;-93
2022/11/11 11:44:37;;;;;;;50.20;28.92;;;;;;;14.70;56.49;102070.75;6316518;22;20010;-95
2022/11/11 11:47:26;;;;;;;50.65;28.70;;;;;;;14.85;56.60;102108.97;6296212;22;20013;-94
2022/11/11 11:50:30;;;;;;;49.08;30.15;;;;;;;14.56;57.49;102065.84;6344399;22;20010;-93
2022/11/11 11:53:09;;;;;;;48.22;29.30;;;;;;;14.78;57.94;102113.31;6268168;22;20074;-94
2022/11/11 11:56:10;;;;;;;52.53;30.05;;;;;;;14.64;57.83;102093.03;6344174;22;20002;-94
2022/11/11 11:59:16;;;;;;;52.50;30.33;;;;;;;14.89;57.40;102115.78;6316931;22;20015;-94
2022/11/11 12:02:11;;;;;;;57.10;30.60;;;;;;;14.86;57.94;102109.81;6345059;22;19999;-93
2022/11/11 12:05:15;;;;;;;57.60;31.05;;;;;;;14.84;57.31;102123.50;6320428;22;20014;-93
2022/11/11 12:08:13;;;;;;;56.38;29.58;;;;;;;14.81;56.95;102106.72;6293627;22;20461;-92
2022/11/11 12:14:55;;;;;;;67.07;31.27;;;;;;;14.72;57.70;102122.03;6355837;22;20114;-92
2022/11/11 12:21:17;;;;;;;59.13;31.20;;;;;;;14.22;57.46;102058.34;6350873;22;20018;-92
2022/11/11 12:30:54;;;;;;;64.28;31.60;;;;;;;14.06;58.61;102118.50;6240890;23;20007;-94
2022/11/11 12:33:52;;;;;;;86.25;33.35;;;;;;;13.93;59.14;102124.25;6215497;23;20012;-95
2022/11/11 12:52:25;;;;;;;49.38;27.45;;;;;;;13.63;60.00;102122.63;6197523;23;20015;-93
2022/11/11 12:58:39;;;;;;;50.75;26.52;;;;;;;13.44;60.22;102117.25;6186403;23;20050;-90
2022/11/11 13:01:32;;;;;;;47.67;24.80;;;;;;;13.37;60.51;102119.66;6194747;23;20015;-95
2022/11/11 13:04:40;;;;;;;48.05;24.67;;;;;;;13.26;60.96;102115.22;6192840;23;20036;-95
2022/11/11 13:16:26;;;;;;;45.88;24.30;;;;;;;12.82;62.05;102073.44;6168591;22;20553;-96
2022/11/11 13:19:25;;;;;;;41.15;23.02;;;;;;;12.85;62.67;102092.94;6277495;22;20709;-96
2022/11/11 13:22:24;;;;;;;45.67;22.33;;;;;;;12.80;62.28;102089.78;6252359;22;20019;-89
2022/11/11 13:24:52;;;;;;;37.42;19.60;;;;;;;12.73;63.14;102106.69;6247623;22;20081;-91
2022/11/11 13:27:36;;;;;;;36.83;18.25;;;;;;;12.86;63.27;102127.00;6205070;22;20444;-92
2022/11/11 13:30:13;;;;;;;27.60;14.13;;;;;;;12.66;63.14;102109.06;6283078;22;20003;-92
2022/11/11 13:33:01;;;;;;;26.02;13.68;;;;;;;12.52;63.49;102113.03;6234797;22;20027;-92
2022/11/11 13:35:39;;;;;;;23.98;13.05;;;;;;;12.62;63.06;102111.22;6256304;22;20007;-92
2022/11/11 13:38:36;;;;;;;23.00;11.90;;;;;;;12.53;63.25;102109.34;6282502;22;20031;-91
2022/11/11 13:41:07;;;;;;;19.48;10.55;;;;;;;12.56;63.60;102151.38;6178028;23;20013;-91
2022/11/11 13:44:18;;;;;;;19.10;10.65;;;;;;;12.19;63.77;102088.09;6257726;22;20150;-91
2022/11/11 13:57:12;;;;;;;20.83;11.27;;;;;;;12.29;65.10;102146.59;6340290;22;20103;-93
2022/11/11 13:59:49;;;;;;;21.23;11.82;;;;;;;12.12;65.70;102140.00;6353046;22;20029;-96
2022/11/11 14:02:26;;;;;;;25.60;12.30;;;;;;;12.18;65.53;102147.56;6322963;22;20435;-96
2022/11/11 14:08:54;;;;;;;28.17;13.18;;;;;;;11.76;66.88;102115.25;6103285;23;20025;-93
2022/11/11 14:11:42;;;;;;;25.08;13.38;;;;;;;12.06;66.74;102154.00;6053503;23;20093;-94
2022/11/11 14:17:49;;;;;;;24.98;12.68;;;;;;;12.07;67.18;102147.66;6302672;22;20109;-95
2022/11/11 14:20:40;;;;;;;24.80;13.25;;;;;;;12.10;67.04;102152.75;6294867;22;20103;-93
2022/11/11 14:23:32;;;;;;;27.52;12.95;;;;;;;11.95;67.39;102128.84;6281306;22;20061;-94
2022/11/11 14:26:12;;;;;;;27.42;13.00;;;;;;;11.98;68.26;102146.59;6306837;22;20011;-93
2022/11/11 14:29:37;;;;;;;25.42;12.93;;;;;;;11.85;68.98;102162.97;6314456;22;20038;-92
2022/11/11 14:33:05;;;;;;;23.55;13.10;;;;;;;11.94;69.31;102164.91;6297782;22;20439;-94
2022/11/11 14:36:22;;;;;;;25.00;13.32;;;;;;;11.71;69.65;102122.88;6319348;22;19995;-93
2022/11/11 14:47:04;;;;;;;25.27;14.77;;;;;;;11.57;72.86;102168.03;6244105;22;20038;31
2022/11/11 14:50:24;;;;;;;29.00;15.88;;;;;;;11.54;73.66;102170.09;6238797;22;20015;-94
2022/11/11 14:53:43;;;;;;;25.90;14.07;;;;;;;11.10;74.47;102118.19;6254077;22;20033;-94
2022/11/11 14:56:56;;;;;;;24.45;14.60;;;;;;;11.40;75.58;102165.88;6266869;22;20050;31
2022/11/11 15:00:26;;;;;;;;;;;;;;;;;;;;;
2022/11/11 15:29:33;;;;;;;25.88;15.32;;;;;;;10.76;81.24;102172.09;6312423;22;20030;-91
2022/11/11 15:36:01;;;;;;;23.02;14.77;;;;;;;10.65;82.83;102186.44;6313327;22;20039;-92
2022/11/11 15:38:52;;;;;;;25.98;15.43;;;;;;;10.66;83.14;102177.38;6306345;22;20035;-89
2022/11/11 15:41:26;;;;;;;22.90;15.13;;;;;;;10.61;83.24;102184.97;6282441;22;19999;-91
2022/11/11 15:43:55;;;;;;;24.80;15.48;;;;;;;10.61;83.36;102179.59;6279227;22;20102;-91
2022/11/11 15:46:45;;;;;;;22.38;14.57;;;;;;;10.73;83.23;102193.88;6259720;22;20011;-91
2022/11/11 15:52:30;;;;;;;23.88;14.82;;;;;;;10.56;82.85;102174.59;6307407;22;20082;-90
2022/11/11 15:54:59;;;;;;;22.02;14.57;;;;;;;10.44;83.22;102155.88;6256179;22;20019;-89
2022/11/11 16:04:24;;;;;;;21.33;13.68;;;;;;;10.41;83.65;102158.81;6305320;22;20046;-89
2022/11/11 16:10:35;;;;;;;21.20;13.70;;;;;;;10.57;84.98;102211.25;6305639;22;20003;-88
2022/11/11 16:16:29;;;;;;;16.98;11.18;;;;;;;10.55;84.11;102212.34;6313989;22;20026;-89
2022/11/11 16:19:13;;;;;;;17.90;11.68;;;;;;;10.57;84.43;102226.53;6257451;22;20067;-88
2022/11/11 16:22:25;;;;;;;14.07;9.88;;;;;;;10.54;84.27;102221.41;6318607;22;20006;-81
2022/11/11 16:24:52;;;;;;;14.85;9.57;;;;;;;10.54;84.67;102222.25;6332478;22;20059;-83
2022/11/11 16:27:20;;;;;;;13.13;8.88;;;;;;;10.58;83.98;102228.22;6263170;22;20017;-86
2022/11/11 16:30:36;;;;;;;13.35;9.30;;;;;;;10.53;84.72;102222.38;6281343;22;20069;-88
2022/11/11 16:33:27;;;;;;;12.27;8.35;;;;;;;10.53;85.35;102233.13;6278819;22;20003;-85
2022/11/11 16:36:05;;;;;;;11.30;7.88;;;;;;;10.22;84.67;102189.84;6250779;22;20023;-86
2022/11/11 16:38:38;;;;;;;11.15;7.50;;;;;;;10.35;85.74;102209.44;6226114;22;20043;-89
2022/11/11 16:41:44;;;;;;;11.30;7.40;;;;;;;10.54;84.86;102248.31;6231721;22;20466;-86
2022/11/11 16:44:42;;;;;;;11.40;7.60;;;;;;;10.40;85.72;102257.47;6255545;22;20116;-85
2022/11/11 16:47:28;;;;;;;10.38;6.82;;;;;;;10.41;85.05;102247.56;6253664;22;20012;-86
2022/11/11 16:50:12;;;;;;;9.95;7.20;;;;;;;10.44;85.94;102252.69;6248742;22;20034;-86
2022/11/11 16:52:44;;;;;;;9.30;6.68;;;;;;;10.26;85.55;102220.88;6280092;22;20003;-85
2022/11/11 16:55:16;;;;;;;9.63;6.63;;;;;;;10.25;85.71;102226.34;6248025;22;20012;-88
2022/11/11 16:58:09;;;;;;;9.15;6.65;;;;;;;10.26;85.71;102233.47;6246775;22;20004;-85
2022/11/11 17:00:36;;;;;;;9.98;7.07;;;;;;;10.11;85.91;102214.88;6229095;22;20008;-88
2022/11/11 17:03:13;;;;;;;8.25;5.60;;;;;;;10.39;85.25;102252.19;6248691;22;20474;-86
2022/11/11 17:05:49;;;;;;;9.07;6.05;;;;;;;10.36;85.60;102255.97;6249324;22;20011;-87
2022/11/11 17:08:27;;;;;;;8.75;6.18;;;;;;;10.46;85.87;102251.56;6246342;22;20440;-88
2022/11/11 17:10:52;;;;;;;8.15;5.45;;;;;;;10.38;84.65;102231.69;6247319;22;20008;-86
2022/11/11 17:16:53;;;;;;;10.00;6.90;;;;;;;10.34;85.26;102229.22;6178752;22;20035;-88
2022/11/11 17:19:20;;;;;;;8.23;5.88;;;;;;;10.20;85.51;102215.97;6225381;22;20011;-88
2022/11/11 17:21:47;;;;;;;7.60;5.88;;;;;;;10.40;84.45;102235.09;6198684;22;20030;-85
2022/11/11 17:24:14;;;;;;;7.78;5.88;;;;;;;10.26;85.09;102210.13;6247009;22;20012;-90
2022/11/11 17:26:40;;;;;;;7.25;5.35;;;;;;;10.48;84.39;102246.94;6196942;22;20011;-86
2022/11/11 17:29:09;;;;;;;9.23;6.40;;;;;;;10.42;84.77;102242.06;6245678;22;20007;-85
2022/11/11 17:31:36;;;;;;;8.02;5.97;;;;;;;10.54;84.72;102248.31;6254387;22;20113;-86
2022/11/11 17:34:09;;;;;;;7.50;5.60;;;;;;;10.48;84.60;102227.28;6254463;22;20012;-83
2022/11/11 17:36:34;;;;;;;9.32;6.35;;;;;;;10.39;84.89;102231.53;6277285;22;20034;-88